Hamada, Japan

5:21 AM JST on September 03, 2014 (GMT +0900)
Iwakuni Marine Corps Air Station | Change Station
CLOSE
Current Station
Airport
Location: Iwakuni MCAS,
Elevation: 7 ft
Nearby Weather Stations

Elev 7 ft 34.14 °N, 132.24 °E | Updated 26 minutes ago

Mostly Cloudy
Mostly Cloudy
76 °F
Feels Like 76 °F
N
0
Wind Variable Wind from North

Today
High -- | Low -- °F
--% Chance of Precip.
Yesterday
High -- | Low -- °F
Precip. -- in
5:45 AM 6:36 PM
First Quarter, 54% visible
Pressure 29.82 in
Visibility 6.2 miles
Clouds Few 2500 ft
Scattered Clouds 6000 ft
Mostly Cloudy 8000 ft
Dew Point 68 °F
Humidity 76%
Rainfall 0.00 in
Snow Depth Not available.
UV 0 out of 12
Pollen Not available.
Air Quality Not available.
Flu Activity Not available.
METAR RJOI 021955Z 00000KT 9999 FEW025 SCT060 BKN080 24/20 A2982 RMK SLP098 T02440200

More Conditions Fewer Conditions

Pressure 29.82 in
Visibility 6.2 miles
Clouds Few 2500 ft
Scattered Clouds 6000 ft
Mostly Cloudy 8000 ft
Dew Point 68 °F
Humidity 76%
Rainfall 0.00 in
Snow Depth Not available.
UV 0 out of 12
Pollen Not available.
Air Quality Not available.
Flu Activity Not available.
METAR RJOI 021955Z 00000KT 9999 FEW025 SCT060 BKN080 24/20 A2982 RMK SLP098 T02440200

More Conditions Fewer Conditions

10-Day Weather Forecast

Almanac

Astronomy

Sep. 03, 2014 Rise Set
Actual Time 5:45 AM JST 6:36 PM JST
Civil Twilight 5:19 AM JST 7:02 PM JST
Nautical Twilight 4:49 AM JST 7:32 PM JST
Astronomical Twilight 4:17 AM JST 8:03 PM JST
Moon 1:35 PM JST (9/3) No Moon Set
Length of Visible Light 13h 42m
Length of Day
12h 50m
Tomorrow will be 2m 7s shorter.
First Quarter, 54% of the Moon is Illuminated
Sep 2
First Quarter
Sep 8
Full
Sep 15
Last Quarter
Sep 24
New
Oct 1
First Quarter

Yesterday's Extremes

Country Highs Country Lows

Community

WunderPhotos

Upload Photos

1,749,757 photos uploaded!

WunderBlogs® & News

By Dr. Jeff Masters
Director of Meteorology, Weather Underground
By Kari Strenfel
Meteorologist, Weather Underground
By Christopher C. Burt
Weather Historian, Weather Underground
September 2, 2014
September 2, 2014
September 2, 2014

Nearby

Snow Depth

Not available.

Earthquake Activity

City Distance Mag. Time & Date
No recent earthquake activity has been reported nearby.
Minimum magnitude displayed is 2.5.

Coastal Water Temperatures

Place Temperature
No Stations Reporting

Nearby Weather Stations